Fort Chipewyan, Canada
Current Conditions -  °F | °C
As of 2:00 AM on Friday 28 Nov 2014 (Local Time) from CYPY Reporting Station
Light Snow Light Snow  
Wind Chill: -31°   Ceiling: 1500
Heat Index: -24°   Visibility: 9mi
Dew Point: -27°   Wind: 5mph
Humidity: 77%   Direction: 270°W
Pressure: 30.33"   Gusts: NA
Location:  58.71°N, 111.15°W
Report Text: CYPY 280900Z AUTO 27004KT 210V290 9SM -SN OVC015 M24/M27 A3033 RMK SLP303
Loading
Personal Weather Stations






























Interactive Weather Map New forecast layout! Learn more

10-Day Weather Forecast

Advertisements
Track Severe Weather on mobile